createdAt,value
2023-05-10T00:00:29.740Z,13.00
2023-05-10T00:02:57.604Z,9.67
2023-05-10T00:05:25.230Z,11.00
2023-05-10T00:07:53.156Z,12.00
2023-05-10T00:10:20.915Z,10.00
2023-05-10T00:12:48.671Z,14.00
2023-05-10T00:15:17.431Z,9.00
2023-05-10T00:17:45.216Z,13.00
2023-05-10T00:20:13.172Z,13.33
2023-05-10T00:22:41.143Z,11.33
2023-05-10T00:25:10.343Z,15.00
2023-05-10T00:27:38.021Z,13.00
2023-05-10T00:30:05.453Z,6.33
2023-05-10T00:32:33.620Z,11.67
2023-05-10T00:35:01.277Z,10.67
2023-05-10T00:37:30.154Z,12.20
2023-05-10T00:39:57.863Z,12.67
2023-05-10T00:42:25.546Z,14.00
2023-05-10T00:44:52.476Z,11.00
2023-05-10T00:47:19.429Z,11.50
2023-05-10T00:49:47.239Z,13.33
2023-05-10T00:52:15.330Z,11.33
2023-05-10T00:54:44.937Z,12.67
2023-05-10T00:57:13.040Z,14.00
2023-05-10T00:59:40.911Z,10.33
2023-05-10T01:02:09.818Z,10.00
2023-05-10T01:04:39.352Z,12.40
2023-05-10T01:07:06.505Z,13.50
2023-05-10T01:09:34.644Z,15.00
2023-05-10T01:12:02.997Z,13.00
2023-05-10T01:14:30.491Z,14.50
2023-05-10T01:17:01.842Z,13.83
2023-05-10T01:19:32.313Z,14.00
2023-05-10T01:21:59.866Z,12.33
2023-05-10T01:25:12.631Z,15.00
2023-05-10T01:27:48.609Z,14.00
2023-05-10T01:30:47.459Z,16.83
2023-05-10T01:33:33.131Z,14.00
2023-05-10T01:36:09.976Z,14.00
2023-05-10T01:38:52.981Z,13.33
2023-05-10T01:41:32.364Z,13.67
2023-05-10T01:44:18.808Z,13.50
2023-05-10T01:47:03.211Z,13.67
2023-05-10T01:49:35.974Z,14.00
2023-05-10T01:52:11.461Z,13.00
2023-05-10T01:54:44.342Z,13.60
2023-05-10T01:57:15.270Z,14.00
2023-05-10T01:59:46.583Z,16.00
2023-05-10T02:02:16.472Z,16.00
2023-05-10T02:04:46.160Z,16.00
2023-05-10T02:07:15.781Z,14.67
2023-05-10T02:09:49.658Z,13.20
2023-05-10T02:12:18.920Z,9.00
2023-05-10T02:14:46.696Z,10.00
2023-05-10T02:17:15.567Z,13.67
2023-05-10T02:19:44.365Z,13.67
2023-05-10T02:22:13.847Z,14.00
2023-05-10T02:24:42.377Z,16.00
2023-05-10T02:27:12.429Z,16.00
2023-05-10T02:29:40.686Z,14.00
2023-05-10T02:32:12.128Z,13.17
2023-05-10T02:34:42.410Z,15.00
2023-05-10T02:37:14.717Z,16.00
2023-05-10T02:39:46.654Z,12.20
2023-05-10T02:42:18.892Z,13.00
2023-05-10T02:44:53.999Z,13.00
2023-05-10T02:47:22.787Z,8.80
2023-05-10T02:49:50.899Z,15.67
2023-05-10T02:52:24.373Z,16.33
2023-05-10T02:54:56.592Z,16.00
2023-05-10T02:57:29.836Z,16.00
2023-05-10T02:59:57.739Z,16.00
2023-05-10T03:02:25.488Z,14.33
2023-05-10T03:04:53.367Z,18.33
2023-05-10T03:07:22.438Z,13.00
2023-05-10T03:09:50.927Z,15.00
2023-05-10T03:12:37.137Z,15.67
2023-05-10T03:15:22.009Z,15.50
2023-05-10T03:17:52.951Z,14.33
2023-05-10T03:20:44.755Z,15.00
2023-05-10T03:23:35.217Z,15.00
2023-05-10T03:26:03.357Z,15.00
2023-05-10T03:28:32.814Z,16.00
2023-05-10T03:31:01.174Z,15.00
2023-05-10T03:33:28.964Z,15.33
2023-05-10T03:35:56.715Z,14.33
2023-05-10T03:38:24.370Z,13.00
2023-05-10T03:40:52.050Z,13.00
2023-05-10T03:43:19.782Z,15.33
2023-05-10T03:45:47.984Z,16.00
2023-05-10T03:48:14.949Z,15.00
2023-05-10T03:50:42.731Z,16.00
2023-05-10T03:53:10.361Z,12.67
2023-05-10T03:55:39.142Z,13.00
2023-05-10T03:58:08.005Z,14.00
2023-05-10T04:00:34.845Z,14.00
2023-05-10T04:03:04.616Z,15.50
2023-05-10T04:05:32.557Z,14.33
2023-05-10T04:08:02.228Z,12.17
2023-05-10T04:10:32.058Z,15.00
2023-05-10T04:12:59.850Z,15.33
2023-05-10T04:15:27.756Z,16.00
2023-05-10T04:17:55.604Z,14.33
2023-05-10T04:20:25.717Z,11.17
2023-05-10T04:22:53.390Z,14.33
2023-05-10T04:25:20.607Z,19.00
2023-05-10T04:27:48.378Z,13.67
2023-05-10T04:30:15.791Z,14.50
2023-05-10T04:32:43.752Z,15.00
2023-05-10T04:35:12.024Z,15.67
2023-05-10T04:37:39.814Z,16.00
2023-05-10T04:40:07.436Z,18.00
2023-05-10T04:42:35.287Z,14.67
2023-05-10T04:45:03.435Z,13.00
2023-05-10T04:47:31.238Z,16.00
2023-05-10T04:49:59.639Z,21.00
2023-05-10T04:52:27.631Z,14.00
2023-05-10T04:54:55.569Z,17.00
2023-05-10T04:57:25.301Z,14.33
2023-05-10T04:59:54.748Z,15.83
2023-05-10T05:02:22.873Z,13.33
2023-05-10T05:04:50.736Z,14.00
2023-05-10T05:07:18.400Z,13.33
2023-05-10T05:09:48.020Z,15.50
2023-05-10T05:12:15.812Z,14.00
2023-05-10T05:14:44.241Z,17.33
2023-05-10T05:17:12.180Z,16.00
2023-05-10T05:19:40.085Z,18.00
2023-05-10T05:22:09.380Z,14.67
2023-05-10T05:24:40.450Z,17.33
2023-05-10T05:27:08.308Z,31.00
2023-05-10T05:29:35.170Z,17.00
2023-05-10T05:32:03.315Z,15.67
2023-05-10T05:34:31.141Z,20.50
2023-05-10T05:36:58.855Z,13.67
2023-05-10T05:39:25.890Z,14.00
2023-05-10T05:41:53.600Z,14.00
2023-05-10T05:44:20.580Z,17.50
2023-05-10T05:46:48.394Z,14.67
2023-05-10T05:49:16.179Z,18.00
2023-05-10T05:51:43.212Z,14.00
2023-05-10T05:54:11.112Z,15.67
2023-05-10T05:56:38.989Z,12.00
2023-05-10T05:59:05.936Z,15.00
2023-05-10T06:01:33.698Z,14.67
2023-05-10T06:04:00.747Z,14.00
2023-05-10T06:06:28.967Z,15.33
2023-05-10T06:08:56.749Z,15.67
2023-05-10T06:11:24.983Z,11.33
2023-05-10T06:13:52.045Z,6.00
2023-05-10T06:16:19.870Z,15.67
2023-05-10T06:18:48.564Z,12.20
2023-05-10T06:21:17.310Z,12.00
2023-05-10T06:23:45.085Z,12.50
2023-05-10T06:26:12.113Z,12.00
2023-05-10T06:28:40.245Z,14.00
2023-05-10T06:31:08.357Z,11.00
2023-05-10T06:33:35.257Z,12.00
2023-05-10T06:36:05.113Z,13.83
2023-05-10T06:38:32.073Z,10.00
2023-05-10T06:40:59.717Z,14.33
2023-05-10T06:43:27.611Z,12.00
2023-05-10T06:45:56.335Z,14.40
2023-05-10T06:48:25.133Z,10.80
2023-05-10T06:50:53.034Z,10.67
2023-05-10T06:53:20.730Z,12.00
2023-05-10T06:55:50.950Z,13.67
2023-05-10T06:58:17.849Z,13.00
2023-05-10T07:00:46.546Z,11.33
2023-05-10T07:03:14.296Z,12.00
2023-05-10T07:05:42.182Z,15.33
2023-05-10T07:08:09.538Z,14.00
2023-05-10T07:10:37.340Z,11.00
2023-05-10T07:13:05.081Z,12.33
2023-05-10T07:15:34.726Z,10.00
2023-05-10T07:18:01.669Z,7.50
2023-05-10T07:20:30.552Z,12.00
2023-05-10T07:23:00.072Z,13.50
2023-05-10T07:25:27.730Z,11.00
2023-05-10T07:27:55.352Z,11.67
2023-05-10T07:30:24.716Z,10.33
2023-05-10T07:32:52.582Z,10.33
2023-05-10T07:35:20.309Z,9.00
2023-05-10T07:37:48.063Z,12.00
2023-05-10T07:40:16.916Z,8.40
2023-05-10T07:42:45.724Z,11.80
2023-05-10T07:45:13.358Z,10.33
2023-05-10T07:47:40.969Z,10.67
2023-05-10T07:50:08.784Z,9.50
2023-05-10T07:52:37.712Z,9.60
2023-05-10T07:55:05.837Z,12.33
2023-05-10T07:57:33.470Z,10.33
2023-05-10T08:00:01.404Z,12.67
2023-05-10T08:02:29.071Z,10.00
2023-05-10T08:04:58.400Z,11.00
2023-05-10T08:07:26.264Z,13.67
2023-05-10T08:09:54.078Z,10.00
2023-05-10T08:12:21.004Z,14.00
2023-05-10T08:14:49.802Z,9.00
2023-05-10T08:17:19.338Z,9.67
2023-05-10T08:19:48.888Z,9.80
2023-05-10T08:22:17.650Z,9.80
2023-05-10T08:24:45.400Z,10.00
2023-05-10T08:27:14.896Z,10.00
2023-05-10T08:29:50.137Z,13.00
2023-05-10T08:32:19.023Z,10.33
2023-05-10T08:34:45.992Z,11.00
2023-05-10T08:37:14.496Z,9.00
2023-05-10T08:39:42.901Z,10.00
2023-05-10T08:42:13.737Z,9.00
2023-05-10T08:44:43.631Z,9.80
2023-05-10T08:47:12.672Z,10.67
2023-05-10T08:49:40.674Z,10.00
2023-05-10T08:52:12.631Z,11.00
2023-05-10T08:54:40.505Z,9.67
2023-05-10T08:57:08.010Z,9.00
2023-05-10T08:59:35.852Z,10.00
2023-05-10T09:02:07.273Z,12.00
2023-05-10T09:04:36.437Z,10.00
2023-05-10T09:07:04.195Z,9.67
2023-05-10T09:09:32.817Z,8.33
2023-05-10T09:11:59.849Z,12.00
2023-05-10T09:14:28.249Z,11.00
2023-05-10T09:16:57.717Z,9.00
2023-05-10T09:19:25.589Z,9.00
2023-05-10T09:21:52.489Z,13.00
2023-05-10T09:24:20.179Z,12.00
2023-05-10T09:26:49.586Z,11.33
2023-05-10T09:29:17.843Z,12.00
2023-05-10T09:31:55.937Z,9.67
2023-05-10T09:34:31.655Z,9.00
2023-05-10T09:37:05.615Z,10.00
2023-05-10T09:39:35.071Z,10.00
2023-05-10T09:42:10.060Z,10.00
2023-05-10T09:44:39.165Z,9.00
2023-05-10T09:47:08.033Z,10.60
2023-05-10T09:49:36.288Z,10.00
2023-05-10T09:52:07.954Z,10.00
2023-05-10T09:54:35.652Z,12.00
2023-05-10T09:57:02.915Z,13.00
2023-05-10T09:59:31.472Z,10.00
2023-05-10T10:02:01.859Z,10.50
2023-05-10T10:04:31.907Z,9.33
2023-05-10T10:07:05.382Z,11.00
2023-05-10T10:09:35.942Z,8.80
2023-05-10T10:12:05.794Z,10.33
2023-05-10T10:14:32.930Z,10.00
2023-05-10T10:19:35.352Z,10.00
2023-05-10T10:22:02.299Z,9.00
2023-05-10T10:24:31.224Z,7.00
2023-05-10T10:27:10.371Z,13.00
2023-05-10T10:30:14.346Z,10.00
2023-05-10T10:33:28.319Z,13.50
2023-05-10T10:35:59.178Z,10.00
2023-05-10T10:38:26.905Z,14.00
2023-05-10T10:41:27.648Z,11.00
2023-05-10T10:44:27.920Z,11.00
2023-05-10T10:47:34.739Z,9.40
2023-05-10T10:50:01.773Z,9.00
2023-05-10T10:52:36.068Z,9.00
2023-05-10T10:55:10.328Z,10.00
2023-05-10T10:58:01.656Z,9.00
2023-05-10T11:00:38.021Z,8.20
2023-05-10T11:03:09.699Z,9.20
2023-05-10T11:05:50.593Z,9.67
2023-05-10T11:08:32.783Z,10.00
2023-05-10T11:11:04.615Z,8.00
2023-05-10T11:13:35.254Z,9.33
2023-05-10T11:16:19.284Z,7.00
2023-05-10T11:18:58.975Z,8.33
2023-05-10T11:21:27.837Z,8.00
2023-05-10T11:23:59.170Z,8.80
2023-05-10T11:26:32.537Z,8.00
2023-05-10T11:29:02.965Z,7.00
2023-05-10T11:31:32.015Z,9.00
2023-05-10T11:34:02.843Z,6.00
2023-05-10T11:36:35.654Z,7.33
2023-05-10T11:39:04.819Z,5.67
2023-05-10T11:41:33.059Z,8.00
2023-05-10T11:44:00.828Z,8.00
2023-05-10T11:46:29.699Z,7.67
2023-05-10T11:49:03.163Z,6.00
2023-05-10T11:51:34.279Z,8.00
2023-05-10T11:54:10.532Z,7.80
2023-05-10T11:56:40.737Z,8.40
2023-05-10T11:59:27.076Z,9.67
2023-05-10T12:01:54.803Z,7.00
2023-05-10T12:04:22.766Z,5.00
2023-05-10T12:06:50.461Z,4.33
2023-05-10T12:09:23.059Z,5.80
2023-05-10T12:12:00.609Z,5.00
2023-05-10T12:14:34.349Z,5.20
2023-05-10T12:17:01.949Z,7.00
2023-05-10T12:19:38.797Z,7.00
2023-05-10T12:22:07.259Z,6.00
2023-05-10T12:24:36.514Z,6.00
2023-05-10T12:27:09.380Z,5.33
2023-05-10T12:29:37.734Z,5.00
2023-05-10T12:32:05.335Z,7.00
2023-05-10T12:34:34.089Z,7.00
2023-05-10T12:37:03.808Z,6.80
2023-05-10T12:39:42.464Z,5.00
2023-05-10T12:42:10.606Z,3.33
2023-05-10T12:44:38.151Z,5.00
2023-05-10T12:47:05.629Z,4.33
2023-05-10T12:49:35.216Z,6.20
2023-05-10T12:52:04.116Z,7.00
2023-05-10T12:54:32.769Z,6.40
2023-05-10T12:57:01.649Z,7.40
2023-05-10T12:59:29.071Z,6.00
2023-05-10T13:01:58.821Z,5.00
2023-05-10T13:04:27.461Z,7.00
2023-05-10T13:06:59.562Z,7.00
2023-05-10T13:09:31.847Z,5.00
2023-05-10T13:12:00.587Z,5.20
2023-05-10T13:14:29.168Z,5.00
2023-05-10T13:16:57.924Z,5.00
2023-05-10T13:19:27.343Z,5.40
2023-05-10T13:21:54.965Z,6.00
2023-05-10T13:24:23.514Z,5.20
2023-05-10T13:26:50.916Z,5.00
2023-05-10T13:29:19.272Z,5.00
2023-05-10T13:31:47.829Z,6.00
2023-05-10T13:34:16.558Z,5.00
2023-05-10T13:36:44.034Z,5.33
2023-05-10T13:39:11.580Z,5.00
2023-05-10T13:41:39.191Z,5.00
2023-05-10T13:44:06.787Z,5.00
2023-05-10T13:46:34.342Z,7.00
2023-05-10T13:49:03.196Z,7.20
2023-05-10T13:51:32.840Z,5.80
2023-05-10T13:54:01.448Z,7.20
2023-05-10T13:56:29.015Z,6.00
2023-05-10T13:58:59.607Z,6.60
2023-05-10T14:01:28.560Z,5.20
2023-05-10T14:03:56.275Z,3.67
2023-05-10T14:06:23.864Z,4.00
2023-05-10T14:08:51.298Z,4.00
2023-05-10T14:11:18.770Z,4.00
2023-05-10T14:13:47.412Z,3.40
2023-05-10T14:16:16.199Z,4.40
2023-05-10T14:18:43.845Z,3.67
2023-05-10T14:21:11.392Z,5.00
2023-05-10T14:23:40.497Z,5.00
2023-05-10T14:26:08.180Z,4.00
2023-05-10T14:28:36.900Z,3.00
2023-05-10T14:31:04.602Z,4.00
2023-05-10T14:33:31.989Z,3.00
2023-05-10T14:36:01.022Z,4.33
2023-05-10T14:38:30.043Z,3.00
2023-05-10T14:40:57.496Z,4.67
2023-05-10T14:43:26.201Z,5.00
2023-05-10T14:45:53.732Z,5.00
2023-05-10T14:48:22.430Z,4.60
2023-05-10T14:50:51.379Z,4.20
2023-05-10T14:53:19.979Z,4.80
2023-05-10T14:55:48.668Z,22.50
2023-05-10T14:58:17.677Z,8.40
2023-05-10T15:00:47.352Z,6.80
2023-05-10T15:03:15.465Z,5.33
2023-05-10T15:05:43.579Z,7.67
2023-05-10T15:08:11.807Z,9.00
2023-05-10T15:10:41.012Z,6.40
2023-05-10T15:13:09.933Z,4.00
2023-05-10T15:15:39.092Z,6.20
2023-05-10T15:18:07.793Z,7.40
2023-05-10T15:20:36.090Z,8.00
2023-05-10T15:23:05.132Z,4.40
2023-05-10T15:25:35.954Z,4.20
2023-05-10T15:28:04.166Z,4.33
2023-05-10T15:30:31.771Z,3.33
2023-05-10T15:33:00.627Z,5.67
2023-05-10T15:35:29.351Z,4.00
2023-05-10T15:37:57.920Z,3.40
2023-05-10T15:40:26.612Z,5.60
2023-05-10T15:42:53.993Z,4.67
2023-05-10T15:45:21.760Z,5.33
2023-05-10T15:47:49.386Z,6.00
2023-05-10T15:50:17.445Z,4.00
2023-05-10T15:52:46.092Z,4.60
2023-05-10T15:55:13.702Z,5.00
2023-05-10T15:57:42.879Z,4.33
2023-05-10T16:00:12.249Z,5.00
2023-05-10T16:02:41.145Z,5.00
2023-05-10T16:05:09.858Z,5.67
2023-05-10T16:07:37.591Z,5.00
2023-05-10T16:10:06.776Z,5.00
2023-05-10T16:12:34.430Z,5.00
2023-05-10T16:15:02.006Z,4.00
2023-05-10T16:17:29.553Z,7.00
2023-05-10T16:19:58.131Z,6.80
2023-05-10T16:22:28.906Z,6.57
2023-05-10T16:24:58.116Z,4.80
2023-05-10T16:27:28.695Z,5.00
2023-05-10T16:29:57.491Z,7.00
2023-05-10T16:32:25.270Z,4.00
2023-05-10T16:34:53.541Z,6.00
2023-05-10T16:37:22.203Z,8.00
2023-05-10T16:39:49.698Z,4.33
2023-05-10T16:42:17.687Z,6.00
2023-05-10T16:44:45.139Z,6.00
2023-05-10T16:47:12.736Z,5.00
2023-05-10T16:49:40.348Z,5.00
2023-05-10T16:52:07.813Z,5.00
2023-05-10T16:54:36.499Z,6.60
2023-05-10T16:57:04.145Z,4.67
2023-05-10T16:59:31.758Z,5.67
2023-05-10T17:01:59.196Z,4.67
2023-05-10T17:04:27.091Z,5.00
2023-05-10T17:06:54.608Z,6.67
2023-05-10T17:09:22.101Z,4.00
2023-05-10T17:11:49.553Z,4.00
2023-05-10T17:14:17.123Z,4.00
2023-05-10T17:16:44.673Z,2.33
2023-05-10T17:19:12.218Z,6.00
2023-05-10T17:21:40.019Z,6.00
2023-05-10T17:24:07.668Z,6.00
2023-05-10T17:26:35.079Z,7.00
2023-05-10T17:29:05.554Z,6.71
2023-05-10T17:31:33.332Z,6.00
2023-05-10T17:34:01.808Z,7.00
2023-05-10T17:36:31.092Z,7.00
2023-05-10T17:38:59.780Z,6.40
2023-05-10T17:41:29.020Z,7.20
2023-05-10T17:43:57.604Z,6.00
2023-05-10T17:46:24.634Z,6.50
2023-05-10T17:48:53.510Z,7.00
2023-05-10T17:51:22.158Z,7.40
2023-05-10T17:53:49.893Z,7.67
2023-05-10T17:56:18.543Z,7.20
2023-05-10T17:58:45.508Z,6.50
2023-05-10T18:01:18.468Z,6.50
2023-05-10T18:03:46.426Z,6.00
2023-05-10T18:06:13.851Z,7.00
2023-05-10T18:08:42.691Z,5.60
2023-05-10T18:11:09.808Z,6.00
2023-05-10T18:13:36.729Z,7.50
2023-05-10T18:16:06.178Z,6.67
2023-05-10T18:18:33.149Z,6.00
2023-05-10T18:20:59.973Z,6.50
2023-05-10T18:23:27.058Z,7.00
2023-05-10T18:25:55.678Z,7.60
2023-05-10T18:28:24.698Z,7.00
2023-05-10T18:30:52.398Z,8.33
2023-05-10T18:33:19.382Z,7.00
2023-05-10T18:35:46.677Z,7.00
2023-05-10T18:38:13.936Z,6.50
2023-05-10T18:43:50.169Z,6.00
2023-05-10T18:46:18.926Z,7.00
2023-05-10T18:48:49.315Z,6.00
2023-05-10T18:51:24.632Z,6.00
2023-05-10T18:53:51.808Z,9.00
2023-05-10T18:56:18.930Z,6.00
2023-05-10T18:58:46.435Z,7.00
2023-05-10T19:01:13.435Z,6.50
2023-05-10T19:03:40.371Z,4.00
2023-05-10T19:06:07.544Z,6.00
2023-05-10T19:08:34.512Z,5.00
2023-05-10T19:11:01.765Z,6.00
2023-05-10T19:13:29.338Z,5.00
2023-05-10T19:16:06.725Z,7.60
2023-05-10T19:18:34.428Z,6.00
2023-05-10T19:21:06.033Z,6.00
2023-05-10T19:23:34.053Z,5.00
2023-05-10T19:26:02.351Z,8.00
2023-05-10T19:28:31.984Z,9.40
2023-05-10T19:30:59.139Z,6.00
2023-05-10T19:33:28.485Z,7.60
2023-05-10T19:35:56.109Z,5.00
2023-05-10T19:38:24.536Z,6.00
2023-05-10T19:41:00.837Z,6.00
2023-05-10T19:43:31.442Z,8.00
2023-05-10T19:46:02.036Z,8.50
2023-05-10T19:48:31.769Z,7.40
2023-05-10T19:51:04.567Z,6.00
2023-05-10T19:53:33.187Z,8.50
2023-05-10T19:56:07.288Z,10.00
2023-05-10T19:58:35.153Z,8.00
2023-05-10T20:01:02.739Z,7.00
2023-05-10T20:03:29.990Z,10.50
2023-05-10T20:05:57.202Z,8.00
2023-05-10T20:08:26.188Z,8.60
2023-05-10T20:10:53.475Z,7.50
2023-05-10T20:13:20.561Z,9.00
2023-05-10T20:15:48.436Z,4.25
2023-05-10T20:18:18.407Z,9.20
2023-05-10T20:20:47.404Z,8.80
2023-05-10T20:23:15.469Z,7.50
2023-05-10T20:25:45.209Z,10.17
2023-05-10T20:28:13.469Z,9.00
2023-05-10T20:30:41.333Z,9.67
2023-05-10T20:33:11.190Z,9.00
2023-05-10T20:35:40.377Z,6.00
2023-05-10T20:38:08.273Z,11.00
2023-05-10T20:40:37.705Z,9.00
2023-05-10T20:43:07.705Z,10.00
2023-05-10T20:45:36.882Z,7.50
2023-05-10T20:48:07.115Z,9.00
2023-05-10T20:50:38.000Z,7.29
2023-05-10T20:53:05.305Z,4.00
2023-05-10T20:55:32.379Z,6.00
2023-05-10T20:57:59.262Z,7.00
2023-05-10T21:00:26.208Z,8.00
2023-05-10T21:02:55.300Z,9.20
2023-05-10T21:05:22.370Z,9.00
2023-05-10T21:07:54.249Z,8.60
2023-05-10T21:10:21.852Z,7.00
2023-05-10T21:12:48.657Z,8.00
2023-05-10T21:15:15.704Z,8.00
2023-05-10T21:17:46.234Z,6.57
2023-05-10T21:20:14.564Z,12.00
2023-05-10T21:22:41.546Z,10.00
2023-05-10T21:25:08.928Z,9.00
2023-05-10T21:27:37.645Z,9.00
2023-05-10T21:30:04.974Z,9.00
2023-05-10T21:32:41.400Z,9.33
2023-05-10T21:35:10.322Z,7.60
2023-05-10T21:37:37.224Z,7.00
2023-05-10T21:40:04.970Z,8.50
2023-05-10T21:42:35.017Z,4.00
2023-05-10T21:45:01.888Z,8.00
2023-05-10T21:47:28.798Z,7.00
2023-05-10T21:49:55.606Z,8.00
2023-05-10T21:52:22.429Z,7.00
2023-05-10T21:54:53.001Z,7.29
2023-05-10T21:57:21.524Z,8.00
2023-05-10T21:59:48.226Z,6.00
2023-05-10T22:02:15.376Z,8.00
2023-05-10T22:04:42.133Z,7.50
2023-05-10T22:07:10.929Z,9.00
2023-05-10T22:09:38.147Z,6.50
2023-05-10T22:12:05.315Z,9.00
2023-05-10T22:14:32.126Z,7.00
2023-05-10T22:16:59.128Z,9.00
2023-05-10T22:19:26.109Z,8.50
2023-05-10T22:21:53.490Z,8.50
2023-05-10T22:24:20.265Z,7.00
2023-05-10T22:26:47.350Z,7.00
2023-05-10T22:29:14.154Z,8.00
2023-05-10T22:31:41.818Z,6.25
2023-05-10T22:34:08.712Z,7.50
2023-05-10T22:36:35.562Z,8.00
2023-05-10T22:39:02.467Z,7.00
2023-05-10T22:41:30.203Z,6.75
2023-05-10T22:43:58.963Z,7.00
2023-05-10T22:46:25.900Z,8.00
2023-05-10T22:48:53.329Z,7.00
2023-05-10T22:51:20.341Z,8.00
2023-05-10T22:53:47.264Z,7.50
2023-05-10T22:56:14.241Z,7.50
2023-05-10T22:58:41.159Z,8.00
2023-05-10T23:01:08.517Z,7.50
2023-05-10T23:03:36.088Z,7.50
2023-05-10T23:06:02.894Z,5.00
2023-05-10T23:08:29.785Z,7.00
2023-05-10T23:10:56.960Z,8.00
2023-05-10T23:13:24.716Z,7.50
2023-05-10T23:15:53.703Z,8.60
2023-05-10T23:18:21.022Z,7.00
2023-05-10T23:20:48.647Z,6.67
2023-05-10T23:23:15.807Z,8.00
2023-05-10T23:25:42.767Z,10.00
2023-05-10T23:28:11.657Z,8.40
2023-05-10T23:30:41.678Z,8.00
2023-05-10T23:33:08.704Z,7.00
2023-05-10T23:35:35.771Z,6.00
2023-05-10T23:38:03.315Z,10.50
2023-05-10T23:40:30.124Z,8.00
2023-05-10T23:42:57.102Z,10.00
2023-05-10T23:45:26.097Z,9.20
2023-05-10T23:47:53.175Z,8.00
2023-05-10T23:50:20.030Z,8.00
2023-05-10T23:52:47.203Z,10.00
2023-05-10T23:55:14.157Z,10.00
2023-05-10T23:57:41.060Z,10.00
